Time;durP1;ratioP1;P1;durP2;ratioP2;P2;SDS_P1;SDS_P2;PMS_P1;PMS_P2;Temp;Humidity;BMP_temperature;BMP_pressure;BME280_temperature;BME280_humidity;BME280_pressure;Samples;Min_cycle;Max_cycle;Signal;HPM_P1;HPM_P2
2023/02/03 00:00:56;;;;;;;0.10;0.10;;;8.10;99.90;;;;;;5064875;28;20258;-80
2023/02/03 00:03:21;;;;;;;0.10;0.10;;;8.10;99.90;;;;;;5065146;28;20296;-80
2023/02/03 00:05:47;;;;;;;0.10;0.10;;;8.20;99.90;;;;;;5062174;28;20185;-80
2023/02/03 00:08:14;;;;;;;0.10;0.10;;;8.20;99.90;;;;;;5063271;28;20611;-79
2023/02/03 00:10:40;;;;;;;0.10;0.10;;;8.30;99.90;;;;;;5066665;28;20612;-80
2023/02/03 00:13:07;;;;;;;0.10;0.10;;;8.40;99.90;;;;;;5065145;28;20191;-80
2023/02/03 00:15:33;;;;;;;0.10;0.10;;;8.40;99.90;;;;;;5068062;28;20220;-80
2023/02/03 00:17:58;;;;;;;0.10;0.10;;;8.40;99.90;;;;;;5065921;28;20187;-80
2023/02/03 00:20:24;;;;;;;0.10;0.10;;;8.30;99.90;;;;;;5068820;28;20249;-80
2023/02/03 00:22:50;;;;;;;0.10;0.10;;;8.30;99.90;;;;;;5067797;28;20303;-80
2023/02/03 00:25:16;;;;;;;0.10;0.10;;;8.30;99.90;;;;;;5067655;28;20179;-80
2023/02/03 00:27:41;;;;;;;0.10;0.10;;;8.20;99.90;;;;;;5067919;28;20379;-80
2023/02/03 00:30:07;;;;;;;0.10;0.10;;;8.20;99.90;;;;;;5068343;28;20212;-80
2023/02/03 00:32:33;;;;;;;0.10;0.10;;;8.20;99.90;;;;;;5066678;28;20226;-80
2023/02/03 00:34:58;;;;;;;0.10;0.10;;;8.30;99.90;;;;;;5068904;28;20212;-80
2023/02/03 00:37:24;;;;;;;0.10;0.10;;;8.30;99.90;;;;;;5068059;28;20279;-79
2023/02/03 00:39:50;;;;;;;0.10;0.10;;;8.30;99.90;;;;;;5068269;28;20263;-80
2023/02/03 00:42:15;;;;;;;0.10;0.10;;;8.20;99.90;;;;;;5066230;28;20183;-80
2023/02/03 00:44:41;;;;;;;0.10;0.10;;;8.20;99.90;;;;;;5064511;28;20263;-80
2023/02/03 00:47:07;;;;;;;0.10;0.10;;;8.20;99.90;;;;;;5064455;28;20540;-80
2023/02/03 00:49:32;;;;;;;0.10;0.10;;;8.10;99.90;;;;;;5064502;28;20266;-80
2023/02/03 00:51:58;;;;;;;0.10;0.10;;;8.10;99.90;;;;;;5065028;28;20187;-80
2023/02/03 00:54:23;;;;;;;0.10;0.10;;;8.10;99.90;;;;;;5065270;28;20196;-80
2023/02/03 00:56:49;;;;;;;0.10;0.10;;;8.20;99.90;;;;;;5063698;28;20190;-79
2023/02/03 00:59:14;;;;;;;0.10;0.10;;;8.30;99.90;;;;;;5066284;28;20195;-80
2023/02/03 01:01:40;;;;;;;0.10;0.10;;;8.30;99.90;;;;;;5063770;28;20233;-79
2023/02/03 01:04:05;;;;;;;0.10;0.10;;;8.30;99.90;;;;;;5064221;28;20294;-79
2023/02/03 01:06:32;;;;;;;0.10;0.10;;;8.30;99.90;;;;;;5065454;28;20273;-79
2023/02/03 01:08:57;;;;;;;0.10;0.10;;;8.30;99.90;;;;;;5065584;28;20639;-80
2023/02/03 01:11:26;;;;;;;0.10;0.10;;;8.30;99.90;;;;;;5066000;28;20298;-80
2023/02/03 01:13:54;;;;;;;0.10;0.10;;;8.30;99.90;;;;;;5064556;28;20217;-80
2023/02/03 01:16:22;;;;;;;0.10;0.10;;;8.30;99.90;;;;;;5065378;28;20196;-80
2023/02/03 01:18:48;;;;;;;0.10;0.10;;;8.30;99.90;;;;;;5068500;28;20196;-80
2023/02/03 01:21:17;;;;;;;0.10;0.10;;;8.30;99.90;;;;;;5069186;28;20305;-80
2023/02/03 01:23:43;;;;;;;0.10;0.10;;;8.30;99.90;;;;;;5068618;28;20290;-80
2023/02/03 01:26:12;;;;;;;0.10;0.10;;;8.30;99.90;;;;;;5067898;28;20185;-80
2023/02/03 01:28:38;;;;;;;0.10;0.10;;;8.30;99.90;;;;;;5067131;28;20192;-80
2023/02/03 01:31:14;;;;;;;0.10;0.10;;;8.30;99.90;;;;;;5069365;28;20212;-80
2023/02/03 01:33:40;;;;;;;0.00;0.00;;;8.30;99.90;;;;;;5068446;28;20244;-79
2023/02/03 01:36:08;;;;;;;0.10;0.10;;;8.30;99.90;;;;;;5069108;28;20191;-79
2023/02/03 01:38:36;;;;;;;0.10;0.10;;;8.30;99.90;;;;;;5068805;28;20542;-80
2023/02/03 01:41:03;;;;;;;0.10;0.10;;;8.30;99.90;;;;;;5070814;28;20228;-80
2023/02/03 01:43:30;;;;;;;0.10;0.10;;;8.30;99.90;;;;;;5068270;28;20212;-80
2023/02/03 01:45:58;;;;;;;0.00;0.00;;;8.30;99.90;;;;;;5068887;28;20829;-80
2023/02/03 01:48:23;;;;;;;0.10;0.10;;;8.30;99.90;;;;;;5068392;28;20196;-79
2023/02/03 01:50:49;;;;;;;0.10;0.10;;;8.30;99.90;;;;;;5068491;28;20209;-80
2023/02/03 01:53:14;;;;;;;0.10;0.10;;;8.30;99.90;;;;;;5066753;28;20663;-79
2023/02/03 01:55:45;;;;;;;0.10;0.10;;;8.30;99.90;;;;;;5069645;28;20191;-80
2023/02/03 01:58:24;;;;;;;0.10;0.10;;;8.30;99.90;;;;;;5067983;28;20192;-80
2023/02/03 02:00:51;;;;;;;0.10;0.10;;;8.30;99.90;;;;;;5077262;28;20227;-81
2023/02/03 02:03:22;;;;;;;0.10;0.10;;;8.40;99.90;;;;;;5068464;28;20215;-80
2023/02/03 02:05:53;;;;;;;0.10;0.10;;;8.40;99.90;;;;;;5069541;28;20268;-80
2023/02/03 02:08:21;;;;;;;0.10;0.10;;;8.40;99.90;;;;;;5067504;28;20665;-80
2023/02/03 02:10:47;;;;;;;0.10;0.10;;;8.40;99.90;;;;;;5069629;28;20204;-80
2023/02/03 02:13:14;;;;;;;0.10;0.10;;;8.30;99.90;;;;;;5068632;28;20181;-80
2023/02/03 02:15:48;;;;;;;0.10;0.10;;;8.30;99.90;;;;;;5066845;28;20192;-80
2023/02/03 02:18:40;;;;;;;0.10;0.10;;;8.30;99.90;;;;;;5067280;28;20185;-80
2023/02/03 02:21:21;;;;;;;0.10;0.10;;;8.30;99.90;;;;;;5068063;28;20981;-80
2023/02/03 02:24:02;;;;;;;0.10;0.10;;;8.30;99.90;;;;;;5067659;28;20208;-81
2023/02/03 02:26:42;;;;;;;0.10;0.10;;;8.30;99.90;;;;;;5068323;28;20204;-80
2023/02/03 02:29:34;;;;;;;0.10;0.10;;;8.20;99.90;;;;;;5067092;28;20220;-80
2023/02/03 02:32:28;;;;;;;0.07;0.07;;;8.20;99.90;;;;;;5049166;28;20193;-80
2023/02/03 02:35:05;;;;;;;0.10;0.10;;;8.30;99.90;;;;;;5066005;28;20185;-79
2023/02/03 02:37:46;;;;;;;0.10;0.10;;;8.20;99.90;;;;;;5066105;28;20221;-78
2023/02/03 02:40:34;;;;;;;0.10;0.10;;;8.30;99.90;;;;;;5066995;28;20198;-79
2023/02/03 02:43:09;;;;;;;0.10;0.10;;;8.20;99.90;;;;;;5066621;28;20201;-79
2023/02/03 02:45:55;;;;;;;0.10;0.10;;;8.20;99.90;;;;;;5065714;28;20655;-80
2023/02/03 02:48:56;;;;;;;0.10;0.10;;;8.30;99.90;;;;;;5069797;28;20198;-80
2023/02/03 02:51:23;;;;;;;0.10;0.10;;;8.20;99.90;;;;;;5051353;28;20575;-80
2023/02/03 02:53:53;;;;;;;0.10;0.10;;;8.30;99.90;;;;;;5068340;28;20195;-80
2023/02/03 02:56:20;;;;;;;0.10;0.10;;;8.30;99.90;;;;;;5068587;28;20690;-80
2023/02/03 02:58:49;;;;;;;0.10;0.10;;;8.30;99.90;;;;;;5070587;28;20188;-80
2023/02/03 03:01:15;;;;;;;0.10;0.10;;;8.20;99.90;;;;;;5069863;28;20230;-79
2023/02/03 03:03:43;;;;;;;0.10;0.10;;;8.20;99.90;;;;;;5068914;28;20220;-79
2023/02/03 03:06:28;;;;;;;0.10;0.10;;;8.30;99.90;;;;;;5069893;28;20280;-80
2023/02/03 03:09:08;;;;;;;0.10;0.10;;;8.20;99.90;;;;;;5071086;28;20184;-79
2023/02/03 03:11:43;;;;;;;0.10;0.10;;;8.20;99.90;;;;;;5069452;28;20242;-80
2023/02/03 03:14:11;;;;;;;0.10;0.10;;;8.20;99.90;;;;;;5069894;28;20190;-80
2023/02/03 03:16:43;;;;;;;0.10;0.10;;;8.20;99.90;;;;;;5067839;28;20597;-80
2023/02/03 03:19:17;;;;;;;0.10;0.10;;;8.20;99.90;;;;;;5063527;28;20189;-80
2023/02/03 03:21:52;;;;;;;0.10;0.10;;;8.10;99.90;;;;;;5065766;28;20213;-80
2023/02/03 03:24:23;;;;;;;0.10;0.10;;;8.20;99.90;;;;;;5065777;28;20302;-80
2023/02/03 03:26:56;;;;;;;0.10;0.10;;;8.20;99.90;;;;;;5067113;28;20200;-80
2023/02/03 03:29:30;;;;;;;0.10;0.10;;;8.20;99.90;;;;;;5065586;28;20181;-80
2023/02/03 03:31:56;;;;;;;0.00;0.00;;;8.10;99.90;;;;;;5055867;28;20198;-79
2023/02/03 03:34:21;;;;;;;0.10;0.10;;;8.10;99.90;;;;;;5069454;28;20230;-79
2023/02/03 03:36:55;;;;;;;0.10;0.10;;;8.20;99.90;;;;;;5064407;28;20212;-80
2023/02/03 03:39:32;;;;;;;0.10;0.10;;;8.20;99.90;;;;;;5061841;28;20283;-80
2023/02/03 03:42:16;;;;;;;0.10;0.10;;;8.20;99.90;;;;;;5073992;28;20255;-79
2023/02/03 03:44:49;;;;;;;0.10;0.10;;;8.20;99.90;;;;;;5072308;28;20212;-81
2023/02/03 03:47:36;;;;;;;0.10;0.10;;;8.20;99.90;;;;;;5062240;28;20174;-82
2023/02/03 03:50:05;;;;;;;0.10;0.10;;;8.30;99.90;;;;;;5065977;28;20206;-82
2023/02/03 03:52:34;;;;;;;0.10;0.10;;;8.30;99.90;;;;;;5065956;28;20203;-81
2023/02/03 03:55:07;;;;;;;0.10;0.10;;;8.30;99.90;;;;;;5065581;28;20182;-80
2023/02/03 03:57:46;;;;;;;0.10;0.10;;;8.30;99.90;;;;;;5067563;28;20200;-81
2023/02/03 04:00:16;;;;;;;0.10;0.10;;;8.30;99.90;;;;;;5064003;28;20218;-79
2023/02/03 04:02:46;;;;;;;0.10;0.10;;;8.30;99.90;;;;;;5066125;28;20188;-80
2023/02/03 04:05:13;;;;;;;0.10;0.10;;;8.30;99.90;;;;;;5064841;28;20186;-80
2023/02/03 04:07:44;;;;;;;0.10;0.10;;;8.30;99.90;;;;;;5060910;28;20280;-81
2023/02/03 04:10:22;;;;;;;0.00;0.00;;;8.30;99.90;;;;;;5061483;28;20261;-80
2023/02/03 04:12:47;;;;;;;0.10;0.10;;;8.30;99.90;;;;;;5060189;28;20224;-80
2023/02/03 04:15:13;;;;;;;0.10;0.10;;;8.30;99.90;;;;;;5061560;28;20223;-81
2023/02/03 04:17:38;;;;;;;0.10;0.10;;;8.30;99.90;;;;;;5062085;28;20240;-81
2023/02/03 04:20:04;;;;;;;0.10;0.10;;;8.40;99.90;;;;;;5062245;28;20284;-80
2023/02/03 04:22:29;;;;;;;0.10;0.10;;;8.30;99.90;;;;;;5062963;28;20242;-80
2023/02/03 04:24:57;;;;;;;0.10;0.10;;;8.30;99.90;;;;;;5060111;28;20236;-80
2023/02/03 04:27:26;;;;;;;0.10;0.10;;;8.30;99.90;;;;;;5061205;28;20193;-81
2023/02/03 04:29:52;;;;;;;0.10;0.10;;;8.30;99.90;;;;;;5060216;28;20200;-80
2023/02/03 04:32:18;;;;;;;0.10;0.10;;;8.30;99.90;;;;;;5063445;28;20723;-81
2023/02/03 04:34:44;;;;;;;0.10;0.10;;;8.30;99.90;;;;;;5064483;28;20523;-81
2023/02/03 04:37:10;;;;;;;0.10;0.10;;;8.30;99.90;;;;;;5073278;28;20200;-81
2023/02/03 04:39:35;;;;;;;0.10;0.10;;;8.30;99.90;;;;;;5063908;28;20688;-81
2023/02/03 04:42:01;;;;;;;0.10;0.10;;;8.30;99.90;;;;;;5064907;28;20188;-81
2023/02/03 04:44:26;;;;;;;0.10;0.10;;;8.30;99.90;;;;;;5063590;28;20205;-81
2023/02/03 04:46:52;;;;;;;0.10;0.10;;;8.30;99.90;;;;;;5063894;28;20182;-81
2023/02/03 04:49:17;;;;;;;0.10;0.10;;;8.30;99.90;;;;;;5063550;28;20187;-80
2023/02/03 04:51:43;;;;;;;0.10;0.10;;;8.30;99.90;;;;;;5064996;28;20219;-81
2023/02/03 04:54:09;;;;;;;0.10;0.10;;;8.30;99.90;;;;;;5067212;28;20207;-80
2023/02/03 04:56:35;;;;;;;0.10;0.10;;;8.20;99.90;;;;;;5068441;28;20669;-81
2023/02/03 04:59:01;;;;;;;0.00;0.00;;;8.30;99.90;;;;;;5068730;28;20195;-80
2023/02/03 05:01:27;;;;;;;0.10;0.10;;;8.30;99.90;;;;;;5068347;28;20253;-81
2023/02/03 05:03:52;;;;;;;0.10;0.10;;;8.30;99.90;;;;;;5066993;28;20231;-80
2023/02/03 05:06:25;;;;;;;0.10;0.10;;;8.30;99.90;;;;;;5068591;28;20296;-81
2023/02/03 05:08:52;;;;;;;0.10;0.10;;;8.30;99.90;;;;;;5066969;28;20180;-81
2023/02/03 05:11:17;;;;;;;0.10;0.10;;;8.30;99.90;;;;;;5067539;28;20205;-81
2023/02/03 05:13:43;;;;;;;0.10;0.10;;;8.30;99.90;;;;;;5066137;28;20188;-81
2023/02/03 05:16:08;;;;;;;0.10;0.10;;;8.40;99.90;;;;;;5068397;28;20192;-81
2023/02/03 05:18:34;;;;;;;0.10;0.10;;;8.40;99.90;;;;;;5067186;28;20274;-80
2023/02/03 05:21:00;;;;;;;0.10;0.10;;;8.40;99.90;;;;;;5066967;28;20209;-81
2023/02/03 05:23:25;;;;;;;0.10;0.10;;;8.40;99.90;;;;;;5067343;28;20205;-81
2023/02/03 05:25:51;;;;;;;0.10;0.10;;;8.40;99.90;;;;;;5066645;28;20261;-81
2023/02/03 05:28:16;;;;;;;0.10;0.10;;;8.40;99.90;;;;;;5066807;28;20189;-81
2023/02/03 05:30:42;;;;;;;0.10;0.10;;;8.40;99.90;;;;;;5066599;28;20215;-81
2023/02/03 05:33:07;;;;;;;0.10;0.10;;;8.40;99.90;;;;;;5066647;28;20283;-81
2023/02/03 05:35:33;;;;;;;0.10;0.10;;;8.40;99.90;;;;;;5066988;28;20187;-81
2023/02/03 05:37:58;;;;;;;0.10;0.10;;;8.40;99.90;;;;;;5066606;28;20192;-81
2023/02/03 05:43:08;;;;;;;0.10;0.10;;;8.40;99.90;;;;;;5067744;28;20220;-81
2023/02/03 05:45:34;;;;;;;0.10;0.10;;;8.40;99.90;;;;;;5066544;28;20189;-81
2023/02/03 05:48:01;;;;;;;0.10;0.10;;;8.50;99.90;;;;;;5066137;28;20242;-80
2023/02/03 05:50:31;;;;;;;0.10;0.10;;;8.50;99.90;;;;;;5066429;28;20709;-81
2023/02/03 05:53:00;;;;;;;0.10;0.10;;;8.50;99.90;;;;;;5065924;28;20216;-81
2023/02/03 05:55:27;;;;;;;0.10;0.10;;;8.50;99.90;;;;;;5066034;28;20192;-82
2023/02/03 05:57:53;;;;;;;0.10;0.10;;;8.50;99.90;;;;;;5067530;28;20179;-82
2023/02/03 06:00:20;;;;;;;0.10;0.10;;;8.50;99.90;;;;;;5066331;28;20275;-82
2023/02/03 06:02:54;;;;;;;0.10;0.10;;;8.50;99.90;;;;;;5066633;28;20186;-81
2023/02/03 06:05:20;;;;;;;0.10;0.10;;;8.50;99.90;;;;;;5066470;28;20279;-80
2023/02/03 06:07:46;;;;;;;0.10;0.10;;;8.50;99.90;;;;;;5065975;28;20239;-81
2023/02/03 06:10:12;;;;;;;0.10;0.10;;;8.50;99.90;;;;;;5067907;28;20209;-82
2023/02/03 06:12:38;;;;;;;0.10;0.10;;;8.50;99.90;;;;;;5065863;28;20189;-80
2023/02/03 06:15:04;;;;;;;0.10;0.10;;;8.50;99.90;;;;;;5067797;28;20491;-80
2023/02/03 06:17:29;;;;;;;0.10;0.10;;;8.50;99.90;;;;;;5065923;28;20199;-80
2023/02/03 06:19:55;;;;;;;0.10;0.10;;;8.50;99.90;;;;;;5065364;28;20261;-80
2023/02/03 06:22:21;;;;;;;0.10;0.10;;;8.50;99.90;;;;;;5065038;28;20191;-81
2023/02/03 06:24:47;;;;;;;0.10;0.10;;;8.50;99.90;;;;;;5066053;28;20199;-81
2023/02/03 06:27:13;;;;;;;0.10;0.10;;;8.60;99.90;;;;;;5064751;28;20180;-82
2023/02/03 06:29:39;;;;;;;0.10;0.10;;;8.60;99.90;;;;;;5066346;28;20233;-80
2023/02/03 06:32:04;;;;;;;0.10;0.10;;;8.50;99.90;;;;;;5066122;28;20187;-80
2023/02/03 06:34:31;;;;;;;0.10;0.10;;;8.60;99.90;;;;;;5066474;28;20194;-81
2023/02/03 06:36:57;;;;;;;0.10;0.10;;;8.60;99.90;;;;;;5067083;28;20592;-80
2023/02/03 06:39:22;;;;;;;0.10;0.10;;;8.50;99.90;;;;;;5068096;28;20234;-81
2023/02/03 06:41:50;;;;;;;0.10;0.10;;;8.60;99.90;;;;;;5066460;28;20194;-81
2023/02/03 06:44:15;;;;;;;0.10;0.10;;;8.60;99.90;;;;;;5067506;28;20209;-80
2023/02/03 06:46:41;;;;;;;0.10;0.10;;;8.60;99.90;;;;;;5064679;28;20601;-81
2023/02/03 06:49:06;;;;;;;0.10;0.10;;;8.50;99.90;;;;;;5066750;28;20187;-80
2023/02/03 06:51:32;;;;;;;0.10;0.10;;;8.50;99.90;;;;;;5066716;28;20734;-81
2023/02/03 06:53:58;;;;;;;0.10;0.10;;;8.50;99.90;;;;;;5067010;28;20177;-81
2023/02/03 06:56:23;;;;;;;0.10;0.10;;;8.50;99.90;;;;;;5065082;28;20192;-81
2023/02/03 06:58:49;;;;;;;0.10;0.10;;;8.50;99.90;;;;;;5067010;28;20267;-81
2023/02/03 07:01:14;;;;;;;0.10;0.10;;;8.50;99.90;;;;;;5065721;28;20243;-81
2023/02/03 07:03:40;;;;;;;0.10;0.10;;;8.60;99.90;;;;;;5066112;28;20260;-81
2023/02/03 07:06:05;;;;;;;0.10;0.10;;;8.50;99.90;;;;;;5063394;28;20176;-81
2023/02/03 07:08:31;;;;;;;0.00;0.00;;;8.60;99.90;;;;;;5066237;28;20186;-80
2023/02/03 07:10:56;;;;;;;0.10;0.10;;;8.60;99.90;;;;;;5064287;28;20243;-81
2023/02/03 07:13:22;;;;;;;0.30;0.30;;;8.60;99.90;;;;;;5064645;28;20199;-81
2023/02/03 07:15:48;;;;;;;0.10;0.10;;;8.60;99.90;;;;;;5064757;28;20195;-82
2023/02/03 07:18:14;;;;;;;0.10;0.10;;;8.60;99.90;;;;;;5066685;28;20193;-80
2023/02/03 07:20:39;;;;;;;0.10;0.10;;;8.60;99.90;;;;;;5066758;28;20204;-81
2023/02/03 07:23:05;;;;;;;0.00;0.00;;;8.60;99.90;;;;;;5064788;28;20754;-81
2023/02/03 07:25:31;;;;;;;0.10;0.10;;;8.60;99.90;;;;;;5066573;28;20192;-82
2023/02/03 07:27:56;;;;;;;0.10;0.10;;;8.60;99.90;;;;;;5065225;28;20802;-81
2023/02/03 07:30:22;;;;;;;0.10;0.10;;;8.70;99.90;;;;;;5067454;28;20207;-80
2023/02/03 07:32:49;;;;;;;0.03;0.03;;;8.70;99.90;;;;;;5065782;28;20189;-81
2023/02/03 07:35:15;;;;;;;0.10;0.10;;;8.70;99.90;;;;;;5065363;28;20558;-81
2023/02/03 07:37:42;;;;;;;0.10;0.10;;;8.70;99.90;;;;;;5065051;28;20186;-82
2023/02/03 07:40:09;;;;;;;0.10;0.10;;;8.80;99.90;;;;;;5066677;28;20196;-81
2023/02/03 07:42:34;;;;;;;0.10;0.10;;;8.80;99.90;;;;;;5064911;28;20268;-81
2023/02/03 07:45:00;;;;;;;0.10;0.10;;;8.80;99.90;;;;;;5065357;28;20290;-81
2023/02/03 07:47:25;;;;;;;0.10;0.10;;;8.80;99.90;;;;;;5066657;28;20655;-80
2023/02/03 07:49:51;;;;;;;0.10;0.10;;;8.80;99.90;;;;;;5064747;28;20279;-81
2023/02/03 07:52:16;;;;;;;0.10;0.10;;;8.80;99.90;;;;;;5065401;28;20587;-81
2023/02/03 07:54:42;;;;;;;0.10;0.10;;;8.90;99.90;;;;;;5064763;28;20210;-81
2023/02/03 07:57:07;;;;;;;0.10;0.10;;;8.90;99.90;;;;;;5065285;28;20191;-80
2023/02/03 07:59:33;;;;;;;0.10;0.10;;;8.90;99.90;;;;;;5065927;28;20665;-81
2023/02/03 08:01:58;;;;;;;0.10;0.10;;;8.90;99.90;;;;;;5065775;28;20206;-81
2023/02/03 08:04:24;;;;;;;0.10;0.10;;;8.90;99.90;;;;;;5067480;28;20209;-80
2023/02/03 08:06:51;;;;;;;0.10;0.10;;;8.90;99.90;;;;;;5065984;28;20209;-81
2023/02/03 08:09:16;;;;;;;0.10;0.10;;;8.90;99.90;;;;;;5065612;28;20189;-80
2023/02/03 08:11:42;;;;;;;0.10;0.10;;;8.90;99.90;;;;;;5066857;28;20882;-81
2023/02/03 08:14:07;;;;;;;0.10;0.10;;;8.90;99.90;;;;;;5065343;28;20719;-81
2023/02/03 08:16:33;;;;;;;0.10;0.10;;;8.90;99.90;;;;;;5074672;28;20205;-80
2023/02/03 08:18:58;;;;;;;0.10;0.10;;;9.00;99.90;;;;;;5066335;28;20271;-80
2023/02/03 08:21:24;;;;;;;0.10;0.10;;;9.00;99.90;;;;;;5066049;28;20208;-81
2023/02/03 08:23:49;;;;;;;0.10;0.10;;;9.00;99.90;;;;;;5065460;28;20526;-81
2023/02/03 08:26:15;;;;;;;0.10;0.10;;;9.00;99.90;;;;;;5063290;28;20179;-81
2023/02/03 08:28:40;;;;;;;0.10;0.10;;;9.10;99.90;;;;;;5064478;28;20191;-81
2023/02/03 08:31:12;;;;;;;0.10;0.10;;;9.10;99.90;;;;;;5064437;28;20202;-81
2023/02/03 08:33:37;;;;;;;0.10;0.10;;;9.20;99.90;;;;;;5063925;28;20207;-80
2023/02/03 08:36:04;;;;;;;0.10;0.10;;;9.20;99.90;;;;;;5064539;28;20543;-80
2023/02/03 08:38:30;;;;;;;0.10;0.10;;;9.20;99.90;;;;;;5064140;28;20278;-81
2023/02/03 08:40:56;;;;;;;0.10;0.10;;;9.30;99.90;;;;;;5065088;28;20306;-80
2023/02/03 08:43:21;;;;;;;0.10;0.10;;;9.30;99.90;;;;;;5063649;28;20212;-81
2023/02/03 08:45:47;;;;;;;0.10;0.10;;;9.30;99.90;;;;;;5065610;28;20181;-81
2023/02/03 08:48:12;;;;;;;0.10;0.10;;;9.30;99.90;;;;;;5064193;28;20177;-81
2023/02/03 08:50:41;;;;;;;0.10;0.10;;;9.40;99.90;;;;;;5063580;28;20642;-80
2023/02/03 08:53:07;;;;;;;0.10;0.10;;;9.40;99.90;;;;;;5064159;28;20185;-82
2023/02/03 08:55:33;;;;;;;0.10;0.10;;;9.40;99.90;;;;;;5065340;28;20190;-81
2023/02/03 08:57:59;;;;;;;0.10;0.10;;;9.40;99.90;;;;;;5064608;28;20173;-81
2023/02/03 09:00:24;;;;;;;0.10;0.10;;;9.40;99.90;;;;;;5065744;28;20229;-81
2023/02/03 09:02:50;;;;;;;0.10;0.10;;;9.40;99.90;;;;;;5065568;28;20192;-80
2023/02/03 09:05:17;;;;;;;0.10;0.10;;;9.50;99.90;;;;;;5066632;28;20586;-80
2023/02/03 09:07:43;;;;;;;0.03;0.03;;;9.50;99.90;;;;;;5064119;28;20220;-81
2023/02/03 09:10:09;;;;;;;0.10;0.10;;;9.50;99.90;;;;;;5063840;28;20235;-80
2023/02/03 09:12:35;;;;;;;0.10;0.10;;;9.50;99.90;;;;;;5064753;28;20224;-81
2023/02/03 09:15:00;;;;;;;0.10;0.10;;;9.50;99.90;;;;;;5065605;28;20692;-81
2023/02/03 09:17:26;;;;;;;0.10;0.10;;;9.50;99.90;;;;;;5062876;28;20191;-82
2023/02/03 09:19:52;;;;;;;0.10;0.10;;;9.60;99.90;;;;;;5063863;28;20850;-81
2023/02/03 09:22:18;;;;;;;0.10;0.10;;;9.60;99.90;;;;;;5062910;28;20195;-81
2023/02/03 09:24:43;;;;;;;0.10;0.10;;;9.60;99.90;;;;;;5065432;28;20216;-81
2023/02/03 09:27:09;;;;;;;0.10;0.10;;;9.60;99.90;;;;;;5063522;28;20268;-81
2023/02/03 09:29:35;;;;;;;0.10;0.10;;;9.60;99.90;;;;;;5064955;28;20220;-82
2023/02/03 09:32:05;;;;;;;0.10;0.10;;;9.60;99.90;;;;;;5063794;28;20528;-80
2023/02/03 09:34:31;;;;;;;0.10;0.10;;;9.60;99.90;;;;;;5063848;28;20211;-81
2023/02/03 09:36:57;;;;;;;0.10;0.10;;;9.70;99.90;;;;;;5063323;28;20181;-81
2023/02/03 09:39:22;;;;;;;0.00;0.00;;;9.70;99.90;;;;;;5067681;28;20184;-80
2023/02/03 09:42:03;;;;;;;0.00;0.00;;;9.70;99.90;;;;;;5068902;28;20258;-81
2023/02/03 09:45:03;;;;;;;0.10;0.10;;;9.70;99.90;;;;;;5066683;28;20747;-80
2023/02/03 09:47:35;;;;;;;0.10;0.10;;;9.70;99.90;;;;;;5061839;28;20678;-81
2023/02/03 09:50:10;;;;;;;0.10;0.10;;;9.70;99.90;;;;;;5068660;28;20628;-81
2023/02/03 09:52:40;;;;;;;0.10;0.10;;;9.70;99.90;;;;;;5067098;28;20184;-81
2023/02/03 09:55:38;;;;;;;0.10;0.10;;;9.80;99.90;;;;;;5069014;28;20325;-81
2023/02/03 09:58:19;;;;;;;0.10;0.10;;;9.80;99.90;;;;;;5068504;28;20226;-81
2023/02/03 10:01:00;;;;;;;0.10;0.10;;;9.80;99.90;;;;;;5065835;28;20235;-81
2023/02/03 10:03:48;;;;;;;0.10;0.10;;;9.70;99.90;;;;;;5066311;28;20208;-81
2023/02/03 10:06:36;;;;;;;0.10;0.10;;;9.70;99.90;;;;;;5066833;28;20383;-81
2023/02/03 10:09:13;;;;;;;0.10;0.10;;;9.80;99.90;;;;;;5067436;28;20244;-81
2023/02/03 10:11:55;;;;;;;0.10;0.10;;;9.80;99.90;;;;;;5067142;28;20287;-80
2023/02/03 10:15:05;;;;;;;0.10;0.10;;;9.80;99.90;;;;;;5066744;28;20279;-81
2023/02/03 10:17:40;;;;;;;0.10;0.10;;;9.70;99.90;;;;;;5064751;28;20215;-81
2023/02/03 10:20:15;;;;;;;0.10;0.10;;;9.80;99.90;;;;;;5066712;28;20200;-81
2023/02/03 10:22:49;;;;;;;0.10;0.10;;;9.80;99.90;;;;;;5066886;28;20223;-81
2023/02/03 10:25:37;;;;;;;0.10;0.10;;;9.80;99.90;;;;;;5068499;28;20204;-81
2023/02/03 10:28:08;;;;;;;0.10;0.10;;;9.80;99.90;;;;;;5067755;28;20259;-81
2023/02/03 10:30:44;;;;;;;0.10;0.10;;;9.80;99.90;;;;;;5065802;28;20307;-81
2023/02/03 10:33:15;;;;;;;0.10;0.10;;;9.80;99.90;;;;;;5066297;28;20183;-81
2023/02/03 10:35:53;;;;;;;0.10;0.10;;;9.80;99.90;;;;;;5066353;28;20196;-82
2023/02/03 10:38:37;;;;;;;0.10;0.10;;;9.80;99.90;;;;;;5067865;28;20191;-81
2023/02/03 10:41:03;;;;;;;0.10;0.10;;;9.90;99.90;;;;;;5068187;28;20293;-81
2023/02/03 10:43:46;;;;;;;0.10;0.10;;;9.90;99.90;;;;;;5067223;28;20608;-81
2023/02/03 10:46:13;;;;;;;0.10;0.10;;;9.90;99.90;;;;;;5065965;28;20669;-80
2023/02/03 10:48:39;;;;;;;0.10;0.10;;;9.90;99.90;;;;;;5065902;28;20195;-81
2023/02/03 10:51:18;;;;;;;0.10;0.10;;;9.90;99.90;;;;;;5066778;28;20205;-80
2023/02/03 10:53:45;;;;;;;0.10;0.10;;;10.00;99.90;;;;;;5073808;28;20197;-82
2023/02/03 10:56:13;;;;;;;0.10;0.10;;;10.00;99.90;;;;;;5066922;28;20184;-81
2023/02/03 10:58:53;;;;;;;0.10;0.10;;;10.00;99.90;;;;;;5064995;28;20188;-81
2023/02/03 11:01:22;;;;;;;0.00;0.00;;;10.00;99.90;;;;;;5065403;28;20279;-81
2023/02/03 11:04:02;;;;;;;0.10;0.10;;;10.00;99.90;;;;;;5065802;28;20207;-81
2023/02/03 11:06:27;;;;;;;0.10;0.10;;;10.10;99.90;;;;;;5066243;28;20206;-80
2023/02/03 11:08:53;;;;;;;0.00;0.00;;;10.10;99.90;;;;;;5065512;28;20330;-81
2023/02/03 11:11:32;;;;;;;0.10;0.10;;;10.10;99.90;;;;;;5065598;28;20204;-81
2023/02/03 11:14:03;;;;;;;0.10;0.10;;;10.20;99.90;;;;;;5066540;28;20176;-81
2023/02/03 11:16:34;;;;;;;0.10;0.10;;;10.30;99.90;;;;;;5064285;28;20189;-81
2023/02/03 11:19:02;;;;;;;0.10;0.10;;;10.40;99.90;;;;;;5065304;28;20189;-81
2023/02/03 11:21:32;;;;;;;0.10;0.10;;;10.30;99.90;;;;;;5065218;28;20208;-81
2023/02/03 11:24:03;;;;;;;0.10;0.10;;;10.30;99.90;;;;;;5065672;28;20192;-81
2023/02/03 11:26:40;;;;;;;0.10;0.10;;;10.20;99.90;;;;;;5064429;28;20199;-81
2023/02/03 11:29:13;;;;;;;0.10;0.10;;;10.30;99.90;;;;;;5063784;28;20650;-81
2023/02/03 11:31:45;;;;;;;0.10;0.10;;;10.30;99.90;;;;;;5064464;28;20230;-81
2023/02/03 11:34:16;;;;;;;0.10;0.10;;;10.30;99.90;;;;;;5064884;28;20654;-81
2023/02/03 11:36:42;;;;;;;0.10;0.10;;;10.30;99.90;;;;;;5066014;28;20598;-81
2023/02/03 11:39:14;;;;;;;0.10;0.10;;;10.40;99.90;;;;;;5065311;28;20314;-81
2023/02/03 11:41:40;;;;;;;0.10;0.10;;;10.40;99.90;;;;;;5063973;28;20204;-81
2023/02/03 11:44:21;;;;;;;0.10;0.10;;;10.40;99.90;;;;;;5066101;28;21094;-81
2023/02/03 11:46:51;;;;;;;0.10;0.10;;;10.40;99.90;;;;;;5064226;28;20649;-81
2023/02/03 11:49:36;;;;;;;0.10;0.10;;;10.40;99.90;;;;;;5065290;28;20187;-80
2023/02/03 11:52:14;;;;;;;0.00;0.00;;;10.30;99.90;;;;;;5065517;28;20184;-81
2023/02/03 11:55:02;;;;;;;0.10;0.10;;;10.30;99.90;;;;;;5064709;28;20550;-81
2023/02/03 11:57:44;;;;;;;0.10;0.10;;;10.10;99.90;;;;;;5064510;28;20204;-81
2023/02/03 12:00:18;;;;;;;0.10;0.10;;;10.20;99.90;;;;;;5065198;28;20213;-82
2023/02/03 12:03:03;;;;;;;0.10;0.10;;;10.10;99.90;;;;;;5066061;28;20548;-81
2023/02/03 12:05:31;;;;;;;0.10;0.10;;;10.10;99.90;;;;;;5064608;28;20432;-81
2023/02/03 12:08:12;;;;;;;0.10;0.10;;;10.00;99.90;;;;;;5065185;28;20173;-81
2023/02/03 12:10:43;;;;;;;0.10;0.10;;;10.00;99.90;;;;;;5065587;28;20246;-81
2023/02/03 12:13:30;;;;;;;0.10;0.10;;;10.00;99.90;;;;;;5065039;28;20254;-82
2023/02/03 12:16:15;;;;;;;0.10;0.10;;;10.00;99.90;;;;;;5065960;28;20184;-81
2023/02/03 12:18:44;;;;;;;0.10;0.10;;;9.90;99.90;;;;;;5065115;28;20270;-81
2023/02/03 12:21:46;;;;;;;0.10;0.10;;;9.90;99.90;;;;;;5064323;28;20214;-80
2023/02/03 12:24:31;;;;;;;0.10;0.10;;;10.00;99.90;;;;;;5065582;28;20406;-80
2023/02/03 12:27:24;;;;;;;0.00;0.00;;;10.00;99.90;;;;;;5063689;28;20513;-81
2023/02/03 12:30:13;;;;;;;0.10;0.10;;;10.00;99.90;;;;;;5062922;28;20179;-80
2023/02/03 12:32:47;;;;;;;0.00;0.00;;;10.00;99.90;;;;;;5063863;28;20757;-81
2023/02/03 12:35:37;;;;;;;0.10;0.10;;;10.00;99.90;;;;;;5064687;28;20213;-82
2023/02/03 12:38:13;;;;;;;0.10;0.10;;;10.00;99.90;;;;;;5064420;28;20176;-80
2023/02/03 12:40:53;;;;;;;0.10;0.10;;;10.00;99.90;;;;;;5066473;28;20898;-81
2023/02/03 12:43:29;;;;;;;0.10;0.10;;;10.10;99.90;;;;;;5066938;28;20253;-81
2023/02/03 12:46:00;;;;;;;0.10;0.10;;;10.10;99.90;;;;;;5065977;28;20584;-81
2023/02/03 12:48:31;;;;;;;0.10;0.10;;;10.10;99.90;;;;;;5064579;28;20546;-81
2023/02/03 12:51:02;;;;;;;0.10;0.10;;;10.10;99.90;;;;;;5064139;28;20298;-82
2023/02/03 12:53:37;;;;;;;0.10;0.10;;;10.10;99.90;;;;;;5064833;28;20509;-82
2023/02/03 12:56:26;;;;;;;0.10;0.10;;;10.10;99.90;;;;;;5064510;28;20173;-80
2023/02/03 12:59:04;;;;;;;0.10;0.10;;;10.10;99.90;;;;;;5067043;28;20208;-81
2023/02/03 13:01:41;;;;;;;0.10;0.10;;;10.10;99.90;;;;;;5066040;28;20673;-80
2023/02/03 13:04:39;;;;;;;0.10;0.10;;;10.00;99.90;;;;;;5064773;28;20228;-81
2023/02/03 13:07:20;;;;;;;0.10;0.10;;;10.00;99.90;;;;;;5065136;28;20173;-81
2023/02/03 13:10:04;;;;;;;0.10;0.10;;;10.00;99.90;;;;;;5065373;28;20188;-81
2023/02/03 13:12:31;;;;;;;0.03;0.03;;;10.00;99.90;;;;;;5066339;28;20184;-81
2023/02/03 13:15:05;;;;;;;0.10;0.10;;;10.00;99.90;;;;;;5068815;28;20659;-80